createdAt,value
2023-03-17T04:09:22.355Z,-1.81
2023-03-17T04:29:25.139Z,-1.73
2023-03-17T05:09:43.186Z,-1.96
2023-03-17T05:29:45.931Z,-1.91
2023-03-17T05:49:52.258Z,-0.64
2023-03-17T06:09:55.042Z,0.83
2023-03-17T07:30:56.126Z,3.09
2023-03-17T08:51:50.182Z,6.76
2023-03-17T09:11:52.784Z,7.52
2023-03-17T09:31:55.333Z,8.29
2023-03-17T09:51:58.163Z,8.88
2023-03-17T10:32:35.534Z,10.79
2023-03-17T10:52:42.053Z,11.67
2023-03-17T11:12:51.672Z,12.18
2023-03-17T11:33:07.610Z,13.15
2023-03-17T11:53:10.093Z,13.22
2023-03-17T12:13:24.144Z,13.53
2023-03-17T12:53:53.155Z,14.05
2023-03-17T13:13:56.948Z,13.47
2023-03-17T13:33:59.704Z,13.82
2023-03-17T13:54:02.628Z,13.77
2023-03-17T14:14:05.220Z,13.46
2023-03-17T14:34:07.691Z,12.84
2023-03-17T14:54:11.013Z,12.62
2023-03-17T15:14:13.760Z,12.56
2023-03-17T15:34:16.644Z,12.09
2023-03-17T15:54:20.736Z,11.87
2023-03-17T16:14:23.474Z,11.58
2023-03-17T16:54:42.877Z,9.70
2023-03-17T17:15:05.634Z,8.79
2023-03-17T17:35:08.190Z,8.04
2023-03-17T17:55:10.874Z,7.59
2023-03-17T18:15:13.455Z,7.14
2023-03-17T18:35:16.223Z,6.77
2023-03-17T18:55:18.945Z,6.54
2023-03-17T19:15:22.098Z,6.23
2023-03-17T19:35:24.597Z,5.95
2023-03-17T19:55:28.216Z,5.72
2023-03-17T20:15:30.733Z,5.51
2023-03-17T20:35:33.677Z,5.25
2023-03-17T20:55:37.822Z,5.06
2023-03-17T21:15:40.869Z,4.86
2023-03-17T21:35:44.744Z,4.75
2023-03-17T21:55:47.782Z,4.47
2023-03-17T22:15:56.024Z,4.21
2023-03-17T22:35:59.401Z,3.92
2023-03-17T22:56:01.899Z,3.69
2023-03-17T23:16:05.752Z,3.64
2023-03-17T23:36:10.462Z,3.59
2023-03-17T23:56:14.197Z,3.49
